Time;durP1;ratioP1;P1;durP2;ratioP2;P2;SDS_P1;SDS_P2;PMS_P1;PMS_P2;Temp;Humidity;BMP_temperature;BMP_pressure;BME280_temperature;BME280_humidity;BME280_pressure;Samples;Min_cycle;Max_cycle;Signal;HPM_P1;HPM_P2
2022/12/13 00:01:36;;;;;;;168.43;56.53;;;;;;;-4.96;100.00;101078.13;4984614;28;20018;-74
2022/12/13 00:04:05;;;;;;;156.43;54.03;;;;;;;-4.86;100.00;101076.91;4997120;28;20029;-74
2022/12/13 00:06:31;;;;;;;154.37;53.17;;;;;;;-4.77;100.00;101081.84;4986734;28;20030;-73
2022/12/13 00:08:57;;;;;;;170.63;57.67;;;;;;;-4.76;100.00;101080.94;4977943;28;20026;-73
2022/12/13 00:11:22;;;;;;;141.43;50.93;;;;;;;-4.86;100.00;101081.31;4995020;28;20087;-73
2022/12/13 00:13:48;;;;;;;149.33;52.07;;;;;;;-4.94;100.00;101078.97;4997022;28;20421;-73
2022/12/13 00:16:16;;;;;;;173.87;56.23;;;;;;;-4.98;100.00;101077.34;4996618;28;20121;-74
2022/12/13 00:18:42;;;;;;;153.70;51.53;;;;;;;-4.90;100.00;101075.28;4987948;28;20039;-73
2022/12/13 00:21:12;;;;;;;145.33;52.67;;;;;;;-4.84;99.92;101075.06;4997191;28;20117;-73
2022/12/13 00:23:37;;;;;;;158.27;55.93;;;;;;;-4.97;99.48;101074.63;4993743;28;20109;-73
2022/12/13 00:26:10;;;;;;;172.30;56.40;;;;;;;-4.89;99.33;101071.75;4979111;28;20065;-73
2022/12/13 00:28:36;;;;;;;146.60;53.43;;;;;;;-4.89;99.32;101068.22;5013955;28;20437;-73
2022/12/13 00:31:02;;;;;;;145.70;52.87;;;;;;;-4.95;98.54;101071.97;4998076;28;20026;-73
2022/12/13 00:33:28;;;;;;;132.77;48.53;;;;;;;-5.03;97.90;101074.00;4997077;28;20025;-73
2022/12/13 00:35:54;;;;;;;163.27;52.70;;;;;;;-5.08;98.65;101070.69;5001257;28;20443;-73
2022/12/13 00:38:20;;;;;;;144.37;51.63;;;;;;;-5.05;98.74;101070.56;4978114;28;20384;-72
2022/12/13 00:40:45;;;;;;;137.23;50.83;;;;;;;-5.20;98.94;101072.81;4982863;28;20037;-73
2022/12/13 00:43:11;;;;;;;136.60;49.73;;;;;;;-5.12;99.47;101080.47;4997630;28;20026;-73
2022/12/13 00:45:37;;;;;;;142.63;49.30;;;;;;;-5.11;99.13;101070.78;4997641;28;20038;-73
2022/12/13 00:48:03;;;;;;;133.77;50.00;;;;;;;-5.06;99.58;101068.84;4997811;28;20040;-74
2022/12/13 00:50:29;;;;;;;148.37;50.23;;;;;;;-5.08;99.26;101065.41;5079523;23;20093;-73
2022/12/13 00:52:54;;;;;;;141.33;52.03;;;;;;;-5.15;98.33;101058.59;5001770;28;20375;-72
2022/12/13 00:55:19;;;;;;;146.57;49.33;;;;;;;-5.20;98.01;101057.00;5020836;28;20036;-73
2022/12/13 00:57:45;;;;;;;134.33;49.03;;;;;;;-5.29;96.92;101052.00;5003579;28;20034;-74
2022/12/13 01:00:10;;;;;;;134.43;48.17;;;;;;;-5.26;97.44;101057.19;5021001;28;20026;-73
2022/12/13 01:02:36;;;;;;;146.30;50.17;;;;;;;-5.26;97.41;101051.91;5003549;28;20112;-73
2022/12/13 01:05:01;;;;;;;146.20;50.57;;;;;;;-5.28;96.96;101053.75;5012932;28;20027;-73
2022/12/13 01:07:27;;;;;;;145.53;51.30;;;;;;;-5.35;97.95;101052.22;4982282;28;20027;-73
2022/12/13 01:09:52;;;;;;;151.50;51.73;;;;;;;-5.30;97.80;101054.72;4983725;28;20045;-73
2022/12/13 01:12:17;;;;;;;143.57;52.93;;;;;;;-5.33;97.79;101042.50;4983097;28;20018;-73
2022/12/13 01:14:43;;;;;;;138.33;48.63;;;;;;;-5.35;97.17;101046.94;4982251;28;20093;-73
2022/12/13 01:17:08;;;;;;;138.23;50.27;;;;;;;-5.40;97.16;101046.25;4982661;28;20026;-74
2022/12/13 01:19:34;;;;;;;134.47;47.53;;;;;;;-5.49;97.36;101043.94;4982667;28;20494;-73
2022/12/13 01:22:04;;;;;;;145.87;49.07;;;;;;;-5.53;97.69;101042.31;4981646;28;20050;-73
2022/12/13 01:24:30;;;;;;;129.37;46.90;;;;;;;-5.46;97.95;101049.13;4982384;28;20037;-73
2022/12/13 01:26:56;;;;;;;151.63;49.47;;;;;;;-5.42;97.80;101034.88;4981743;28;20034;-73
2022/12/13 01:29:22;;;;;;;133.23;49.20;;;;;;;-5.49;97.47;101047.44;4981665;28;20027;-74
2022/12/13 01:31:47;;;;;;;135.00;47.57;;;;;;;-5.44;97.80;101030.59;4981557;28;20033;-72
2022/12/13 01:34:20;;;;;;;147.97;50.20;;;;;;;-5.38;97.94;101036.50;4991822;28;20022;-74
2022/12/13 01:36:47;;;;;;;142.27;51.30;;;;;;;-5.32;97.73;101038.94;4981338;28;20041;-74
2022/12/13 01:39:15;;;;;;;136.57;47.53;;;;;;;-5.29;97.47;101046.72;4981511;28;20062;-74
2022/12/13 01:41:44;;;;;;;126.63;47.03;;;;;;;-5.26;97.73;101041.38;4980859;28;20029;-74
2022/12/13 01:45:01;;;;;;;150.87;49.57;;;;;;;-5.25;98.09;101043.09;4980774;28;20022;-74
2022/12/13 01:47:36;;;;;;;146.20;50.10;;;;;;;-5.30;98.41;101050.28;4954273;28;20398;-73
2022/12/13 01:50:08;;;;;;;151.90;51.07;;;;;;;-5.52;99.35;101046.69;4997614;28;20026;-74
2022/12/13 01:52:34;;;;;;;141.70;47.30;;;;;;;-5.58;99.64;101038.97;4981268;28;20030;-74
2022/12/13 01:55:03;;;;;;;139.73;49.40;;;;;;;-5.51;100.00;101035.22;4997555;28;20028;-74
2022/12/13 01:57:31;;;;;;;149.07;50.07;;;;;;;-5.44;100.00;101036.72;5002092;28;20056;-72
2022/12/13 01:59:57;;;;;;;137.63;47.73;;;;;;;-5.39;100.00;101042.72;5001379;28;20022;-74
2022/12/13 02:02:22;;;;;;;151.07;50.57;;;;;;;-5.32;100.00;101038.94;5001270;28;20497;-74
2022/12/13 02:05:12;;;;;;;128.83;48.07;;;;;;;-5.26;100.00;101038.72;5001393;28;20022;-74
2022/12/13 02:07:40;;;;;;;132.20;45.17;;;;;;;-5.45;100.00;101029.72;4981949;28;20023;-74
2022/12/13 02:10:07;;;;;;;137.00;46.80;;;;;;;-5.63;100.00;101030.34;4982961;28;20026;-74
2022/12/13 02:12:35;;;;;;;145.97;51.07;;;;;;;-5.53;100.00;101021.22;5000500;28;20046;-74
2022/12/13 02:15:06;;;;;;;138.03;46.30;;;;;;;-5.54;100.00;101030.06;4990669;28;20161;-74
2022/12/13 02:17:59;;;;;;;132.55;46.70;;;;;;;-5.45;100.00;101029.72;5003466;28;20024;-73
2022/12/13 02:20:49;;;;;;;148.67;48.40;;;;;;;-5.47;100.00;101021.88;5004176;28;20042;-73
2022/12/13 02:23:38;;;;;;;134.03;45.47;;;;;;;-5.40;100.00;101019.88;5021222;28;20030;-74
2022/12/13 02:26:41;;;;;;;120.77;43.73;;;;;;;-5.41;100.00;101012.88;5002370;28;20034;-74
2022/12/13 02:29:21;;;;;;;127.20;44.57;;;;;;;-5.16;100.00;101014.63;4990899;28;20034;-74
2022/12/13 02:31:50;;;;;;;149.90;48.43;;;;;;;-5.10;100.00;101012.63;5020115;28;20026;-73
2022/12/13 02:34:26;;;;;;;137.20;48.10;;;;;;;-4.96;100.00;101006.84;4994774;28;20026;-74
2022/12/13 02:37:17;;;;;;;123.70;46.53;;;;;;;-4.91;99.93;101004.91;5019197;28;20076;-74
2022/12/13 02:39:50;;;;;;;132.63;45.50;;;;;;;-4.92;99.71;101011.09;5003142;28;20022;-74
2022/12/13 02:42:28;;;;;;;118.57;41.50;;;;;;;-5.07;98.99;101009.03;5002234;28;20041;-74
2022/12/13 02:45:25;;;;;;;126.03;44.23;;;;;;;-5.01;99.01;101003.53;5019889;28;20064;-73
2022/12/13 02:47:55;;;;;;;126.07;44.17;;;;;;;-5.08;98.35;101007.31;5002380;28;20033;-74
2022/12/13 02:50:23;;;;;;;139.63;45.30;;;;;;;-5.12;98.45;101005.69;5001628;28;20025;-74
2022/12/13 02:52:50;;;;;;;125.10;45.07;;;;;;;-5.16;98.60;101009.34;5001059;28;20103;-73
2022/12/13 02:55:16;;;;;;;139.10;47.67;;;;;;;-5.23;98.83;101009.56;5001395;28;20034;-72
2022/12/13 02:57:43;;;;;;;136.77;46.23;;;;;;;-5.23;99.90;100999.03;5001671;28;20068;-74
2022/12/13 03:00:16;;;;;;;121.43;44.57;;;;;;;-5.31;100.00;101011.63;5001433;28;20025;-74
2022/12/13 03:03:06;;;;;;;129.60;45.40;;;;;;;-5.40;100.00;101006.69;5001282;28;20030;-74
2022/12/13 03:09:16;;;;;;;120.77;46.03;;;;;;;-5.09;100.00;101005.56;5019346;28;20445;-74
2022/12/13 03:14:59;;;;;;;136.10;47.92;;;;;;;-5.24;100.00;100996.44;5019694;28;20124;-72
2022/12/13 03:17:26;;;;;;;133.98;44.03;;;;;;;-5.16;100.00;100998.78;5004918;28;20065;-73
2022/12/13 03:19:53;;;;;;;126.80;41.67;;;;;;;-5.25;100.00;101006.13;5006281;28;20040;-72
2022/12/13 03:22:18;;;;;;;138.80;46.57;;;;;;;-5.42;100.00;101003.22;5024355;28;20084;-73
2022/12/13 03:24:44;;;;;;;129.97;44.10;;;;;;;-5.43;100.00;101006.78;5007879;28;20022;-74
2022/12/13 03:27:10;;;;;;;136.50;47.60;;;;;;;-5.41;100.00;101004.97;5007987;28;20022;-74
2022/12/13 03:29:35;;;;;;;132.70;43.63;;;;;;;-5.24;100.00;101007.84;5007738;28;20109;-73
2022/12/13 03:32:00;;;;;;;131.47;46.93;;;;;;;-5.12;100.00;101000.41;5008132;28;20080;-73
2022/12/13 03:34:26;;;;;;;125.83;45.13;;;;;;;-5.00;100.00;100999.97;5022855;28;20029;-74
2022/12/13 03:36:52;;;;;;;119.07;41.03;;;;;;;-4.90;100.00;100990.78;5004608;28;20099;-73
2022/12/13 03:39:18;;;;;;;124.23;41.10;;;;;;;-4.87;100.00;100990.69;5022085;28;20053;-72
2022/12/13 03:41:43;;;;;;;128.47;43.20;;;;;;;-4.96;100.00;100991.00;5008066;28;20040;-74
2022/12/13 03:44:09;;;;;;;139.67;47.83;;;;;;;-4.97;100.00;100989.28;5026104;28;20025;-74
2022/12/13 03:46:35;;;;;;;126.30;42.67;;;;;;;-4.90;100.00;100990.78;4997930;28;20018;-74
2022/12/13 03:49:00;;;;;;;131.20;43.30;;;;;;;-5.23;100.00;100993.75;5010160;28;20028;-73
2022/12/13 03:51:25;;;;;;;133.10;46.37;;;;;;;-5.12;100.00;100984.59;5008993;28;20061;-73
2022/12/13 03:53:51;;;;;;;122.50;41.83;;;;;;;-5.01;100.00;100982.41;5008612;28;20021;-73
2022/12/13 03:56:16;;;;;;;133.30;43.73;;;;;;;-4.89;100.00;100976.69;5008446;28;20029;-74
2022/12/13 03:58:42;;;;;;;112.37;42.80;;;;;;;-4.72;100.00;100979.53;5009495;28;20097;-74
2022/12/13 04:01:09;;;;;;;124.27;42.67;;;;;;;-4.96;100.00;100980.44;5007926;28;20087;-74
2022/12/13 04:03:36;;;;;;;128.80;44.73;;;;;;;-4.91;100.00;100984.63;5004531;28;20076;-74
2022/12/13 04:06:02;;;;;;;133.00;45.23;;;;;;;-4.76;100.00;100977.94;5003670;28;20478;-73
2022/12/13 04:08:27;;;;;;;120.37;44.50;;;;;;;-4.66;100.00;100973.16;5008333;28;20054;-73
2022/12/13 04:10:53;;;;;;;130.63;44.87;;;;;;;-4.51;100.00;100972.53;5024890;28;20501;-74
2022/12/13 04:13:33;;;;;;;132.03;45.50;;;;;;;-4.49;100.00;100964.59;5025198;28;20034;-74
2022/12/13 04:16:01;;;;;;;124.57;43.27;;;;;;;-4.49;100.00;100970.72;5025538;28;20021;-74
2022/12/13 04:18:26;;;;;;;130.43;45.23;;;;;;;-4.47;100.00;100973.28;5010059;28;20057;-74
2022/12/13 04:20:52;;;;;;;144.27;46.77;;;;;;;-4.48;100.00;100966.28;5010640;28;20033;-74
2022/12/13 04:23:17;;;;;;;116.10;42.20;;;;;;;-4.36;100.00;100965.81;5011578;28;20005;-74
2022/12/13 04:25:43;;;;;;;132.93;43.33;;;;;;;-4.48;100.00;100966.28;5011675;28;20052;-74
2022/12/13 04:28:09;;;;;;;155.23;47.37;;;;;;;-4.44;100.00;100965.22;5010878;28;20026;-74
2022/12/13 04:30:35;;;;;;;117.10;42.80;;;;;;;-4.37;100.00;100958.78;5012713;28;20037;-74
2022/12/13 04:33:01;;;;;;;143.83;47.87;;;;;;;-4.33;100.00;100960.38;5029465;28;20386;-73
2022/12/13 04:35:27;;;;;;;127.00;43.60;;;;;;;-4.37;100.00;100964.06;5014338;28;20030;-74
2022/12/13 04:37:52;;;;;;;116.93;40.60;;;;;;;-4.35;100.00;100967.53;5015651;28;20041;-73
2022/12/13 04:40:18;;;;;;;129.10;44.47;;;;;;;-4.45;100.00;100971.44;5016096;28;20029;-74
2022/12/13 04:42:43;;;;;;;121.33;42.10;;;;;;;-4.48;100.00;100968.94;5016362;28;20049;-74
2022/12/13 04:45:13;;;;;;;133.97;43.17;;;;;;;-4.39;100.00;100961.50;5015030;28;20041;-74
2022/12/13 04:47:38;;;;;;;128.30;43.70;;;;;;;-4.16;100.00;100963.22;5015695;28;20029;-74
2022/12/13 04:50:04;;;;;;;113.23;40.60;;;;;;;-4.14;100.00;100966.66;5015597;28;20026;-73
2022/12/13 04:52:29;;;;;;;124.53;42.90;;;;;;;-4.33;100.00;100976.25;5014492;28;20061;-73
2022/12/13 04:54:55;;;;;;;129.97;44.07;;;;;;;-4.39;100.00;100971.22;5015078;28;20044;-73
2022/12/13 04:57:20;;;;;;;127.63;41.80;;;;;;;-4.35;100.00;100956.97;5015229;28;20029;-72
2022/12/13 04:59:45;;;;;;;140.83;45.07;;;;;;;-4.46;100.00;100967.09;5015607;28;20171;-74
2022/12/13 05:02:11;;;;;;;127.83;42.50;;;;;;;-4.44;100.00;100957.31;5015134;28;20014;-74
2022/12/13 05:04:37;;;;;;;120.17;42.67;;;;;;;-4.26;100.00;100964.50;5015442;28;20029;-73
2022/12/13 05:07:03;;;;;;;138.20;47.13;;;;;;;-4.39;100.00;100960.63;5015090;28;20028;-74
2022/12/13 05:09:28;;;;;;;129.10;45.40;;;;;;;-4.42;100.00;100966.06;5015092;28;20022;-74
2022/12/13 05:11:54;;;;;;;136.23;43.40;;;;;;;-4.30;100.00;100959.41;5014845;28;20112;-74
2022/12/13 05:14:19;;;;;;;146.20;46.50;;;;;;;-4.46;100.00;100960.03;5006351;28;20022;-73
2022/12/13 05:16:45;;;;;;;118.37;41.20;;;;;;;-4.33;100.00;100963.03;5014872;28;20021;-74
2022/12/13 05:19:10;;;;;;;115.57;42.00;;;;;;;-4.46;100.00;100959.16;5014826;28;20021;-73
2022/12/13 05:21:36;;;;;;;129.37;42.33;;;;;;;-4.41;100.00;100962.50;5014587;28;20052;-74
2022/12/13 05:24:01;;;;;;;138.97;44.67;;;;;;;-4.47;100.00;100962.72;5014601;28;20030;-74
2022/12/13 05:26:27;;;;;;;126.80;41.90;;;;;;;-4.37;100.00;100958.78;5014321;28;20041;-73
2022/12/13 05:28:55;;;;;;;133.03;42.73;;;;;;;-4.34;100.00;100948.09;5015224;28;20033;-74
2022/12/13 05:31:20;;;;;;;133.23;45.37;;;;;;;-4.22;100.00;100952.91;5014346;28;20029;-73
2022/12/13 05:33:46;;;;;;;130.27;42.90;;;;;;;-4.08;100.00;100956.75;5019706;28;20133;-74
2022/12/13 05:36:11;;;;;;;128.13;43.73;;;;;;;-4.04;100.00;100960.97;5027679;28;20022;-73
2022/12/13 05:38:36;;;;;;;122.40;41.10;;;;;;;-3.97;100.00;100949.25;5015093;28;20028;-73
2022/12/13 05:41:02;;;;;;;125.70;40.83;;;;;;;-3.95;100.00;100955.31;5008065;28;20022;-75
2022/12/13 05:43:28;;;;;;;128.80;42.60;;;;;;;-4.05;100.00;100956.63;5030819;28;20021;-74
2022/12/13 05:45:53;;;;;;;129.33;42.97;;;;;;;-3.90;100.00;100958.66;5014672;28;20029;-74
2022/12/13 05:48:19;;;;;;;108.03;38.00;;;;;;;-3.67;100.00;100961.16;5013973;28;20009;-74
2022/12/13 05:50:44;;;;;;;125.23;42.10;;;;;;;-3.67;100.00;100953.22;5014452;28;20026;-73
2022/12/13 05:53:10;;;;;;;128.57;43.43;;;;;;;-3.66;100.00;100952.28;5012608;28;20048;-74
2022/12/13 05:55:37;;;;;;;114.53;39.77;;;;;;;-3.64;100.00;100955.75;5029016;28;20030;-75
2022/12/13 05:58:03;;;;;;;119.97;41.57;;;;;;;-3.46;100.00;100958.50;5011870;28;20026;-74
2022/12/13 06:00:28;;;;;;;125.63;41.03;;;;;;;-3.60;100.00;100952.03;5011450;28;20040;-73
2022/12/13 06:02:54;;;;;;;122.43;40.73;;;;;;;-3.42;100.00;100957.44;5020645;28;20073;-75
2022/12/13 06:05:19;;;;;;;123.67;41.20;;;;;;;-3.50;100.00;100956.94;5007028;28;20084;-74
2022/12/13 06:07:45;;;;;;;116.17;39.30;;;;;;;-3.71;100.00;100954.28;5010031;28;20051;-75
2022/12/13 06:10:10;;;;;;;128.73;42.10;;;;;;;-3.95;100.00;100960.63;5027757;28;20029;-75
2022/12/13 06:12:37;;;;;;;128.80;41.77;;;;;;;-4.02;100.00;100949.44;5009424;28;20089;-74
2022/12/13 06:15:03;;;;;;;114.00;38.33;;;;;;;-4.10;100.00;100952.41;5011671;28;20026;-74
2022/12/13 06:17:33;;;;;;;114.67;40.27;;;;;;;-4.13;100.00;100952.50;5011039;28;20081;-75
2022/12/13 06:19:59;;;;;;;113.50;39.60;;;;;;;-4.08;100.00;100951.47;5011218;28;20052;-75
2022/12/13 06:22:25;;;;;;;113.07;38.70;;;;;;;-3.95;100.00;100955.31;5009682;28;20034;-74
2022/12/13 06:24:51;;;;;;;112.60;40.73;;;;;;;-3.88;100.00;100956.78;5009664;28;20026;-75
2022/12/13 06:27:16;;;;;;;115.07;38.77;;;;;;;-3.87;100.00;100950.56;5008723;28;20045;-74
2022/12/13 06:29:41;;;;;;;111.13;39.87;;;;;;;-3.82;100.00;100956.53;5009245;28;20034;-74
2022/12/13 06:32:07;;;;;;;118.70;39.00;;;;;;;-3.68;100.00;100946.22;5006513;28;20025;-74
2022/12/13 06:34:34;;;;;;;133.20;42.40;;;;;;;-3.56;100.00;100953.63;5005386;28;20037;-73
2022/12/13 06:37:00;;;;;;;124.97;41.90;;;;;;;-3.67;100.00;100945.28;4988713;28;20411;-77
2022/12/13 06:39:26;;;;;;;119.63;42.27;;;;;;;-3.64;100.00;100954.88;5016347;28;20022;-75
2022/12/13 06:41:51;;;;;;;111.73;40.03;;;;;;;-3.45;100.00;100954.97;5008251;28;20061;-74
2022/12/13 06:44:16;;;;;;;120.07;42.33;;;;;;;-3.25;100.00;100952.28;5008245;28;20155;-75
2022/12/13 06:46:42;;;;;;;107.33;38.10;;;;;;;-3.30;100.00;100960.41;5007503;28;20056;-74
2022/12/13 06:49:07;;;;;;;118.40;41.00;;;;;;;-3.39;100.00;100952.00;5007309;28;20037;-76
2022/12/13 06:51:33;;;;;;;119.00;39.67;;;;;;;-3.48;100.00;100955.94;5006047;28;20026;-75
2022/12/13 06:54:01;;;;;;;122.20;41.70;;;;;;;-3.66;100.00;100962.88;5021763;28;20045;-75
2022/12/13 06:56:27;;;;;;;116.90;39.90;;;;;;;-3.87;100.00;100959.34;5016597;28;20026;-75
2022/12/13 06:58:52;;;;;;;122.63;40.53;;;;;;;-3.57;100.00;100962.50;5006491;28;20056;-75
2022/12/13 07:01:18;;;;;;;110.27;37.97;;;;;;;-3.56;100.00;100960.69;5006829;28;20072;-75
2022/12/13 07:03:44;;;;;;;101.60;38.13;;;;;;;-3.58;100.00;100968.72;5006842;28;20036;-74
2022/12/13 07:06:19;;;;;;;113.57;38.40;;;;;;;-3.64;100.00;100971.63;4991229;28;20084;-76
2022/12/13 07:08:48;;;;;;;114.73;39.17;;;;;;;-3.75;100.00;100967.72;4999375;28;20021;-75
2022/12/13 07:11:19;;;;;;;103.90;36.87;;;;;;;-3.67;100.00;100971.75;5006990;28;20018;-75
2022/12/13 07:13:45;;;;;;;109.53;38.10;;;;;;;-3.59;100.00;100969.66;5007056;28;20022;-74
2022/12/13 07:16:11;;;;;;;103.90;37.23;;;;;;;-3.39;100.00;100970.53;5006731;28;20020;-75
2022/12/13 07:18:37;;;;;;;113.67;38.33;;;;;;;-3.65;100.00;100975.19;5006608;28;20040;-75
2022/12/13 07:21:04;;;;;;;113.00;36.70;;;;;;;-3.72;100.00;100967.56;5007132;28;20085;-76
2022/12/13 07:23:29;;;;;;;102.87;37.20;;;;;;;-3.58;100.00;100970.50;5007572;28;20117;-75
2022/12/13 07:25:55;;;;;;;109.80;36.67;;;;;;;-3.63;100.00;100973.34;5007672;28;20029;-75
2022/12/13 07:28:21;;;;;;;107.40;39.43;;;;;;;-3.52;100.00;100974.66;5007547;28;20083;-76
2022/12/13 07:30:47;;;;;;;99.23;34.43;;;;;;;-3.65;100.00;100969.91;5008968;28;20047;-72
2022/12/13 07:33:13;;;;;;;102.00;35.20;;;;;;;-3.72;100.00;100973.72;4992797;28;20026;-73
2022/12/13 07:35:39;;;;;;;105.10;37.63;;;;;;;-3.71;100.00;100970.16;4975593;28;20045;-72
2022/12/13 07:38:09;;;;;;;109.07;39.80;;;;;;;-3.41;100.00;100961.81;4975853;28;20042;-73
2022/12/13 07:40:37;;;;;;;92.90;35.10;;;;;;;-3.42;100.00;100965.41;4992870;28;20573;-73
2022/12/13 07:43:03;;;;;;;100.83;35.93;;;;;;;-3.44;100.00;100967.25;4975889;28;20030;-72
2022/12/13 07:45:28;;;;;;;101.10;35.40;;;;;;;-3.54;100.00;100977.38;4975627;28;20065;-73
2022/12/13 07:47:54;;;;;;;90.17;32.70;;;;;;;-3.63;100.00;100973.34;4992170;28;20137;-73
2022/12/13 07:50:20;;;;;;;105.17;35.13;;;;;;;-3.56;100.00;100980.09;4979472;28;20042;-73
2022/12/13 07:52:47;;;;;;;98.53;33.10;;;;;;;-3.49;100.00;100987.75;4987528;28;20036;-71
2022/12/13 07:55:12;;;;;;;86.67;31.43;;;;;;;-3.36;100.00;100987.16;4990151;28;20103;-74
2022/12/13 07:57:38;;;;;;;95.20;32.87;;;;;;;-3.23;100.00;100982.19;5006148;28;20070;-74
2022/12/13 08:00:04;;;;;;;88.17;33.80;;;;;;;-3.07;100.00;100983.22;4990163;28;20041;-72
2022/12/13 08:02:29;;;;;;;81.93;30.60;;;;;;;-3.01;100.00;100988.22;5007562;28;20025;-73
2022/12/13 08:04:54;;;;;;;91.50;31.07;;;;;;;-2.85;100.00;100983.13;4994034;28;20112;-71
2022/12/13 08:07:20;;;;;;;107.50;35.50;;;;;;;-2.66;100.00;100980.47;5015256;28;20470;-73
2022/12/13 08:09:45;;;;;;;105.17;36.87;;;;;;;-2.80;100.00;100982.91;5009073;28;20073;-72
2022/12/13 08:12:10;;;;;;;102.80;37.27;;;;;;;-2.91;100.00;100978.09;4978388;28;20027;-74
2022/12/13 08:14:36;;;;;;;87.90;33.33;;;;;;;-2.90;100.00;100984.25;4984221;28;20026;-74
2022/12/13 08:17:01;;;;;;;88.13;32.07;;;;;;;-2.70;100.00;100985.97;4984430;28;20031;-73
2022/12/13 08:19:27;;;;;;;79.30;31.43;;;;;;;-2.79;100.00;100997.88;4978626;28;20025;-74
2022/12/13 08:21:52;;;;;;;81.37;29.67;;;;;;;-2.83;100.00;100990.97;4994499;28;20030;-71
2022/12/13 08:24:19;;;;;;;86.40;30.13;;;;;;;-2.78;100.00;100992.50;4992537;28;20120;-73
2022/12/13 08:26:44;;;;;;;81.77;31.30;;;;;;;-2.67;100.00;100997.31;4993926;28;20076;-71
2022/12/13 08:29:14;;;;;;;80.03;29.23;;;;;;;-2.62;100.00;100995.28;4994407;28;20028;-74
2022/12/13 08:31:39;;;;;;;76.67;29.73;;;;;;;-2.78;100.00;100989.00;4974293;28;20140;-73
2022/12/13 08:34:04;;;;;;;85.83;29.77;;;;;;;-3.03;100.00;100990.09;4974979;28;20117;-71
2022/12/13 08:36:30;;;;;;;76.73;32.27;;;;;;;-2.96;100.00;100984.53;4981809;28;20054;-74
2022/12/13 08:38:57;;;;;;;88.30;31.43;;;;;;;-3.08;100.00;100981.50;4986177;28;20386;-74
2022/12/13 08:41:23;;;;;;;105.60;34.23;;;;;;;-2.81;100.00;100978.53;4987523;28;20028;-74
2022/12/13 08:43:49;;;;;;;92.03;32.03;;;;;;;-3.08;100.00;100981.50;4992932;28;20040;-74
2022/12/13 08:46:14;;;;;;;89.83;34.80;;;;;;;-2.93;100.00;100984.41;4993576;28;20033;-73
2022/12/13 08:48:40;;;;;;;90.00;33.47;;;;;;;-3.04;100.00;100972.50;4989519;28;20100;-74
2022/12/13 08:51:10;;;;;;;92.37;31.90;;;;;;;-2.92;100.00;100972.88;4979459;28;20069;-72
2022/12/13 08:53:36;;;;;;;85.87;33.03;;;;;;;-2.74;100.00;100969.34;4990624;28;20518;-74
2022/12/13 08:56:03;;;;;;;86.60;33.97;;;;;;;-2.54;100.00;100974.59;4986342;28;20113;-74
2022/12/13 08:58:28;;;;;;;87.03;30.23;;;;;;;-2.52;100.00;100964.78;4974432;28;20383;-71
2022/12/13 09:00:58;;;;;;;93.27;34.33;;;;;;;-2.36;100.00;100969.34;4977329;28;20027;-74
2022/12/13 09:03:30;;;;;;;88.90;33.47;;;;;;;-2.50;100.00;100972.66;4979788;28;20077;-72
2022/12/13 09:06:09;;;;;;;80.30;30.33;;;;;;;-2.71;100.00;100977.19;4982186;28;20060;-74
2022/12/13 09:08:39;;;;;;;84.87;32.20;;;;;;;-2.74;100.00;100979.94;4988731;28;20379;-73
2022/12/13 09:11:15;;;;;;;79.40;30.10;;;;;;;-2.75;100.00;100972.94;4982678;28;20117;-72
2022/12/13 09:13:44;;;;;;;93.53;32.70;;;;;;;-2.93;100.00;100973.81;4985680;28;20030;-74
2022/12/13 09:16:14;;;;;;;84.03;30.30;;;;;;;-2.65;100.00;100976.91;4975365;28;20022;-72
2022/12/13 09:18:48;;;;;;;83.83;31.33;;;;;;;-2.71;100.00;100979.81;4984737;28;20029;-73
2022/12/13 09:21:20;;;;;;;78.47;28.50;;;;;;;-2.70;100.00;100975.38;4987203;28;20026;-75
2022/12/13 09:23:46;;;;;;;75.23;29.80;;;;;;;-2.39;100.00;100969.50;5009097;28;20387;-76
2022/12/13 09:26:41;;;;;;;83.23;31.03;;;;;;;-2.65;100.00;100963.66;4986548;28;20026;-73
2022/12/13 09:29:15;;;;;;;81.87;29.17;;;;;;;-2.34;100.00;100972.81;4984066;28;20049;-72
2022/12/13 09:31:44;;;;;;;77.53;29.97;;;;;;;-2.27;100.00;100974.22;4987374;28;20053;-74
2022/12/13 09:34:12;;;;;;;78.77;30.23;;;;;;;-2.00;100.00;100972.88;4990573;28;20376;-72
2022/12/13 09:36:38;;;;;;;70.30;27.07;;;;;;;-2.07;100.00;100979.41;5004832;28;20041;-71
2022/12/13 09:39:03;;;;;;;71.57;28.63;;;;;;;-2.34;100.00;100968.34;5001248;28;20045;-72
2022/12/13 09:41:34;;;;;;;68.20;26.73;;;;;;;-2.00;99.53;100972.88;4986246;28;20076;-69
2022/12/13 09:44:20;;;;;;;57.93;22.10;;;;;;;-1.68;99.58;100973.06;4982637;28;20032;-70
2022/12/13 09:46:47;;;;;;;70.13;27.47;;;;;;;-1.48;98.58;100969.38;4964933;28;20281;-69
2022/12/13 09:49:30;;;;;;;84.90;28.80;;;;;;;-1.52;99.04;100967.81;4990447;28;20045;-71
2022/12/13 09:51:59;;;;;;;75.63;29.30;;;;;;;-1.66;97.98;100960.56;4979388;28;20034;-71
2022/12/13 09:54:25;;;;;;;75.00;29.00;;;;;;;-1.46;97.62;100968.34;4986981;28;20025;-71
2022/12/13 09:56:53;;;;;;;88.77;30.17;;;;;;;-1.43;98.54;100962.91;4984072;28;20049;-70
2022/12/13 09:59:27;;;;;;;72.20;28.90;;;;;;;-1.22;96.86;100965.38;4991058;28;20033;-71
2022/12/13 10:01:52;;;;;;;75.00;28.30;;;;;;;-1.52;97.46;100957.19;4981292;28;20033;-71
2022/12/13 10:04:18;;;;;;;66.90;27.83;;;;;;;-1.59;97.21;100967.25;4987985;28;20124;-71
2022/12/13 10:06:44;;;;;;;69.80;28.03;;;;;;;-1.41;97.92;100954.84;4986818;28;20058;-72
2022/12/13 10:09:12;;;;;;;74.70;28.13;;;;;;;-1.42;97.05;100959.28;4985561;28;20025;-73
2022/12/13 10:11:50;;;;;;;76.83;27.60;;;;;;;-1.12;96.20;100953.28;4982403;28;20022;-70
2022/12/13 10:14:30;;;;;;;79.03;30.70;;;;;;;-1.39;95.77;100956.47;4985338;28;20441;-71
2022/12/13 10:17:02;;;;;;;73.10;29.27;;;;;;;-1.56;96.91;100956.50;4984516;28;20049;-71
2022/12/13 10:19:35;;;;;;;75.43;30.17;;;;;;;-1.56;97.42;100956.50;4989535;28;20103;-71
2022/12/13 10:22:03;;;;;;;78.30;27.47;;;;;;;-1.65;96.27;100956.97;4976267;28;20022;-71
2022/12/13 10:24:54;;;;;;;92.33;28.70;;;;;;;-1.65;97.41;100952.50;4981778;28;20092;-70
2022/12/13 10:27:27;;;;;;;77.40;31.10;;;;;;;-1.72;96.20;100960.88;4982599;28;20022;-71
2022/12/13 10:30:00;;;;;;;74.63;29.67;;;;;;;-1.65;97.86;100956.97;4983843;28;20033;-71
2022/12/13 10:32:25;;;;;;;70.17;27.87;;;;;;;-1.43;97.02;100956.72;4993760;28;20033;-72
2022/12/13 10:34:54;;;;;;;81.90;32.43;;;;;;;-1.38;96.27;100955.53;4989847;28;20103;-71
2022/12/13 10:37:22;;;;;;;76.27;31.93;;;;;;;-1.49;96.43;100947.28;4986645;28;20058;-72
2022/12/13 10:39:48;;;;;;;87.80;32.40;;;;;;;-1.22;97.20;100941.47;4983099;28;20033;-70
2022/12/13 10:42:19;;;;;;;79.10;30.97;;;;;;;-1.06;95.41;100945.00;4986780;28;20072;-72
2022/12/13 10:44:46;;;;;;;76.78;29.63;;;;;;;-1.12;95.36;100950.63;5005570;28;20061;-71
2022/12/13 10:47:17;;;;;;;89.80;30.33;;;;;;;-1.23;96.44;100942.41;4981212;28;20029;-71
2022/12/13 10:49:52;;;;;;;78.57;31.63;;;;;;;-1.24;96.50;100943.31;4976993;28;20022;-71
2022/12/13 10:52:38;;;;;;;75.17;28.33;;;;;;;-0.84;94.48;100934.09;4985697;28;20508;-71
2022/12/13 10:55:16;;;;;;;72.13;29.33;;;;;;;-1.06;94.45;100945.00;4984765;28;20022;-70
2022/12/13 10:57:52;;;;;;;74.30;31.00;;;;;;;-1.11;95.47;100931.09;4988752;28;20088;-70
2022/12/13 11:00:44;;;;;;;66.33;28.43;;;;;;;-0.96;95.38;100935.59;4982966;28;20022;-72
2022/12/13 11:03:31;;;;;;;;;;;;;;;-0.91;94.81;100932.69;4987332;28;20022;-71
2022/12/13 11:06:11;;;;;;;69.67;28.70;;;;;;;-0.79;94.04;100925.84;4986311;28;19920;-71
2022/12/13 11:08:37;;;;;;;70.93;28.90;;;;;;;-1.10;94.90;100927.53;4986777;28;20038;-71
2022/12/13 11:11:05;;;;;;;64.63;28.63;;;;;;;-0.88;94.78;100920.09;4979808;28;20072;-70
2022/12/13 11:13:43;;;;;;;68.47;27.57;;;;;;;-1.04;95.03;100916.56;5002723;28;20026;-70